sensor_id;sensor_type;location;lat;lon;timestamp;temperature;humidity
42031;DHT22;27709;52.036;5.906;2023-03-14T00:00:15;12.30;99.90
42031;DHT22;27709;52.036;5.906;2023-03-14T00:02:41;12.30;99.90
42031;DHT22;27709;52.036;5.906;2023-03-14T00:05:06;12.30;99.90
42031;DHT22;27709;52.036;5.906;2023-03-14T00:07:36;12.30;99.90
42031;DHT22;27709;52.036;5.906;2023-03-14T00:10:07;12.30;99.90
42031;DHT22;27709;52.036;5.906;2023-03-14T00:12:33;12.30;99.90
42031;DHT22;27709;52.036;5.906;2023-03-14T00:14:59;12.30;99.90
42031;DHT22;27709;52.036;5.906;2023-03-14T00:17:29;12.30;99.90
42031;DHT22;27709;52.036;5.906;2023-03-14T00:19:57;12.30;99.90
42031;DHT22;27709;52.036;5.906;2023-03-14T00:22:22;12.30;99.90
42031;DHT22;27709;52.036;5.906;2023-03-14T00:24:48;12.30;99.90
42031;DHT22;27709;52.036;5.906;2023-03-14T00:27:13;12.20;99.90
42031;DHT22;27709;52.036;5.906;2023-03-14T00:29:39;12.20;99.90
42031;DHT22;27709;52.036;5.906;2023-03-14T00:32:04;12.10;99.90
42031;DHT22;27709;52.036;5.906;2023-03-14T00:34:30;12.00;99.90
42031;DHT22;27709;52.036;5.906;2023-03-14T00:36:56;11.80;99.90
42031;DHT22;27709;52.036;5.906;2023-03-14T00:39:23;11.80;99.90
42031;DHT22;27709;52.036;5.906;2023-03-14T00:41:48;11.70;99.90
42031;DHT22;27709;52.036;5.906;2023-03-14T00:44:14;11.70;99.90
42031;DHT22;27709;52.036;5.906;2023-03-14T00:46:39;11.60;99.90
42031;DHT22;27709;52.036;5.906;2023-03-14T00:49:05;11.50;99.90
42031;DHT22;27709;52.036;5.906;2023-03-14T00:51:30;11.50;99.90
42031;DHT22;27709;52.036;5.906;2023-03-14T00:53:56;11.40;99.90
42031;DHT22;27709;52.036;5.906;2023-03-14T00:56:22;11.40;99.90
42031;DHT22;27709;52.036;5.906;2023-03-14T00:58:56;11.30;99.90
42031;DHT22;27709;52.036;5.906;2023-03-14T01:01:24;11.30;99.90
42031;DHT22;27709;52.036;5.906;2023-03-14T01:03:53;11.30;99.90
42031;DHT22;27709;52.036;5.906;2023-03-14T01:06:21;11.30;99.90
42031;DHT22;27709;52.036;5.906;2023-03-14T01:08:47;11.20;99.90
42031;DHT22;27709;52.036;5.906;2023-03-14T01:11:15;11.20;99.90
42031;DHT22;27709;52.036;5.906;2023-03-14T01:13:42;11.20;99.90
42031;DHT22;27709;52.036;5.906;2023-03-14T01:16:09;11.20;99.90
42031;DHT22;27709;52.036;5.906;2023-03-14T01:18:36;11.10;99.90
42031;DHT22;27709;52.036;5.906;2023-03-14T01:21:02;11.10;99.90
42031;DHT22;27709;52.036;5.906;2023-03-14T01:26:04;11.10;99.90
42031;DHT22;27709;52.036;5.906;2023-03-14T01:28:29;11.10;99.90
42031;DHT22;27709;52.036;5.906;2023-03-14T01:30:56;11.00;99.90
42031;DHT22;27709;52.036;5.906;2023-03-14T01:33:27;11.10;99.90
42031;DHT22;27709;52.036;5.906;2023-03-14T01:35:53;11.10;99.90
42031;DHT22;27709;52.036;5.906;2023-03-14T01:38:20;11.00;99.90
42031;DHT22;27709;52.036;5.906;2023-03-14T01:40:46;11.00;99.90
42031;DHT22;27709;52.036;5.906;2023-03-14T01:43:16;11.00;99.90
42031;DHT22;27709;52.036;5.906;2023-03-14T01:48:26;11.00;99.90
42031;DHT22;27709;52.036;5.906;2023-03-14T01:50:53;11.00;99.90
42031;DHT22;27709;52.036;5.906;2023-03-14T01:53:20;11.00;99.90
42031;DHT22;27709;52.036;5.906;2023-03-14T01:55:47;10.90;99.90
42031;DHT22;27709;52.036;5.906;2023-03-14T01:58:16;11.00;99.90
42031;DHT22;27709;52.036;5.906;2023-03-14T02:00:42;10.90;99.90
42031;DHT22;27709;52.036;5.906;2023-03-14T02:03:09;10.90;99.90
42031;DHT22;27709;52.036;5.906;2023-03-14T02:05:37;10.90;99.90
42031;DHT22;27709;52.036;5.906;2023-03-14T02:08:06;10.90;99.90
42031;DHT22;27709;52.036;5.906;2023-03-14T02:10:33;10.80;99.90
42031;DHT22;27709;52.036;5.906;2023-03-14T02:13:01;10.80;99.90
42031;DHT22;27709;52.036;5.906;2023-03-14T02:15:30;10.80;99.90
42031;DHT22;27709;52.036;5.906;2023-03-14T02:17:56;10.80;99.90
42031;DHT22;27709;52.036;5.906;2023-03-14T02:20:25;10.80;99.90
42031;DHT22;27709;52.036;5.906;2023-03-14T02:23:00;10.70;99.90
42031;DHT22;27709;52.036;5.906;2023-03-14T02:25:43;10.70;99.90
42031;DHT22;27709;52.036;5.906;2023-03-14T02:28:09;10.70;99.90
42031;DHT22;27709;52.036;5.906;2023-03-14T02:30:34;10.70;99.90
42031;DHT22;27709;52.036;5.906;2023-03-14T02:33:01;10.70;99.90
42031;DHT22;27709;52.036;5.906;2023-03-14T02:35:34;10.70;99.90
42031;DHT22;27709;52.036;5.906;2023-03-14T02:38:06;10.70;99.90
42031;DHT22;27709;52.036;5.906;2023-03-14T02:40:33;10.60;99.90
42031;DHT22;27709;52.036;5.906;2023-03-14T02:42:59;10.60;99.90
42031;DHT22;27709;52.036;5.906;2023-03-14T02:47:54;10.50;99.90
42031;DHT22;27709;52.036;5.906;2023-03-14T02:50:20;10.50;99.90
42031;DHT22;27709;52.036;5.906;2023-03-14T02:52:47;10.40;99.90
42031;DHT22;27709;52.036;5.906;2023-03-14T02:55:12;10.40;99.90
42031;DHT22;27709;52.036;5.906;2023-03-14T02:57:37;10.40;99.90
42031;DHT22;27709;52.036;5.906;2023-03-14T03:00:03;10.40;99.90
42031;DHT22;27709;52.036;5.906;2023-03-14T03:02:33;10.40;99.90
42031;DHT22;27709;52.036;5.906;2023-03-14T03:05:00;10.40;99.90
42031;DHT22;27709;52.036;5.906;2023-03-14T03:07:26;10.40;99.90
42031;DHT22;27709;52.036;5.906;2023-03-14T03:09:53;10.40;99.90
42031;DHT22;27709;52.036;5.906;2023-03-14T03:12:18;10.40;99.90
42031;DHT22;27709;52.036;5.906;2023-03-14T03:14:43;10.30;99.90
42031;DHT22;27709;52.036;5.906;2023-03-14T03:17:09;10.30;99.90
42031;DHT22;27709;52.036;5.906;2023-03-14T03:19:34;10.30;99.90
42031;DHT22;27709;52.036;5.906;2023-03-14T03:22:00;10.30;99.90
42031;DHT22;27709;52.036;5.906;2023-03-14T03:24:26;10.30;99.90
42031;DHT22;27709;52.036;5.906;2023-03-14T03:26:52;10.30;99.90
42031;DHT22;27709;52.036;5.906;2023-03-14T03:29:18;10.30;99.90
42031;DHT22;27709;52.036;5.906;2023-03-14T03:31:44;10.20;99.90
42031;DHT22;27709;52.036;5.906;2023-03-14T03:34:11;10.20;99.90
42031;DHT22;27709;52.036;5.906;2023-03-14T03:36:36;10.20;99.90
42031;DHT22;27709;52.036;5.906;2023-03-14T03:39:02;10.30;99.90
42031;DHT22;27709;52.036;5.906;2023-03-14T03:41:29;10.20;99.90
42031;DHT22;27709;52.036;5.906;2023-03-14T03:43:54;10.30;99.90
42031;DHT22;27709;52.036;5.906;2023-03-14T03:46:20;10.30;99.90
42031;DHT22;27709;52.036;5.906;2023-03-14T03:48:45;10.20;99.90
42031;DHT22;27709;52.036;5.906;2023-03-14T03:51:12;10.20;99.90
42031;DHT22;27709;52.036;5.906;2023-03-14T03:53:38;10.20;99.90
42031;DHT22;27709;52.036;5.906;2023-03-14T03:56:03;10.20;99.90
42031;DHT22;27709;52.036;5.906;2023-03-14T03:58:31;10.20;99.90
42031;DHT22;27709;52.036;5.906;2023-03-14T04:00:57;10.20;99.90
42031;DHT22;27709;52.036;5.906;2023-03-14T04:03:22;10.20;99.90
42031;DHT22;27709;52.036;5.906;2023-03-14T04:05:57;10.20;99.90
42031;DHT22;27709;52.036;5.906;2023-03-14T04:08:24;10.30;99.90
42031;DHT22;27709;52.036;5.906;2023-03-14T04:10:53;10.30;99.90
42031;DHT22;27709;52.036;5.906;2023-03-14T04:13:18;10.20;99.90
42031;DHT22;27709;52.036;5.906;2023-03-14T04:15:45;10.20;99.90
42031;DHT22;27709;52.036;5.906;2023-03-14T04:18:10;10.20;99.90
42031;DHT22;27709;52.036;5.906;2023-03-14T04:20:39;10.20;99.90
42031;DHT22;27709;52.036;5.906;2023-03-14T04:23:04;10.20;99.90
42031;DHT22;27709;52.036;5.906;2023-03-14T04:25:29;10.20;99.90
42031;DHT22;27709;52.036;5.906;2023-03-14T04:27:55;10.10;99.90
42031;DHT22;27709;52.036;5.906;2023-03-14T04:30:20;10.10;99.90
42031;DHT22;27709;52.036;5.906;2023-03-14T04:32:47;10.10;99.90
42031;DHT22;27709;52.036;5.906;2023-03-14T04:35:13;10.10;99.90
42031;DHT22;27709;52.036;5.906;2023-03-14T04:37:38;10.10;99.90
42031;DHT22;27709;52.036;5.906;2023-03-14T04:40:04;10.10;99.90
42031;DHT22;27709;52.036;5.906;2023-03-14T04:42:31;10.20;99.90
42031;DHT22;27709;52.036;5.906;2023-03-14T04:44:57;10.20;99.90
42031;DHT22;27709;52.036;5.906;2023-03-14T04:47:22;10.20;99.90
42031;DHT22;27709;52.036;5.906;2023-03-14T04:49:48;10.20;99.90
42031;DHT22;27709;52.036;5.906;2023-03-14T04:52:13;10.30;99.90
42031;DHT22;27709;52.036;5.906;2023-03-14T04:54:39;10.30;99.90
42031;DHT22;27709;52.036;5.906;2023-03-14T04:57:05;10.40;99.90
42031;DHT22;27709;52.036;5.906;2023-03-14T04:59:32;10.40;99.90
42031;DHT22;27709;52.036;5.906;2023-03-14T05:01:57;10.40;99.90
42031;DHT22;27709;52.036;5.906;2023-03-14T05:04:23;10.40;99.90
42031;DHT22;27709;52.036;5.906;2023-03-14T05:06:48;10.40;99.90
42031;DHT22;27709;52.036;5.906;2023-03-14T05:09:14;10.40;99.90
42031;DHT22;27709;52.036;5.906;2023-03-14T05:11:40;10.40;99.90
42031;DHT22;27709;52.036;5.906;2023-03-14T05:14:07;10.40;99.90
42031;DHT22;27709;52.036;5.906;2023-03-14T05:16:32;10.40;99.90
42031;DHT22;27709;52.036;5.906;2023-03-14T05:18:58;10.40;99.90
42031;DHT22;27709;52.036;5.906;2023-03-14T05:21:24;10.40;99.90
42031;DHT22;27709;52.036;5.906;2023-03-14T05:23:50;10.30;99.90
42031;DHT22;27709;52.036;5.906;2023-03-14T05:26:15;10.30;99.90
42031;DHT22;27709;52.036;5.906;2023-03-14T05:28:42;10.30;99.90
42031;DHT22;27709;52.036;5.906;2023-03-14T05:31:07;10.30;99.90
42031;DHT22;27709;52.036;5.906;2023-03-14T05:33:35;10.20;99.90
42031;DHT22;27709;52.036;5.906;2023-03-14T05:36:01;10.20;99.90
42031;DHT22;27709;52.036;5.906;2023-03-14T05:38:27;10.30;99.90
42031;DHT22;27709;52.036;5.906;2023-03-14T05:40:52;10.20;99.90
42031;DHT22;27709;52.036;5.906;2023-03-14T05:43:18;10.20;99.90
42031;DHT22;27709;52.036;5.906;2023-03-14T05:45:43;10.20;99.90
42031;DHT22;27709;52.036;5.906;2023-03-14T05:48:09;10.20;99.90
42031;DHT22;27709;52.036;5.906;2023-03-14T05:50:34;10.20;99.90
42031;DHT22;27709;52.036;5.906;2023-03-14T05:53:01;10.20;99.90
42031;DHT22;27709;52.036;5.906;2023-03-14T05:55:27;10.20;99.90
42031;DHT22;27709;52.036;5.906;2023-03-14T05:57:54;10.10;99.90
42031;DHT22;27709;52.036;5.906;2023-03-14T06:00:21;10.20;99.90
42031;DHT22;27709;52.036;5.906;2023-03-14T06:02:47;10.20;99.90
42031;DHT22;27709;52.036;5.906;2023-03-14T06:05:13;10.10;99.90
42031;DHT22;27709;52.036;5.906;2023-03-14T06:07:39;10.10;99.90
42031;DHT22;27709;52.036;5.906;2023-03-14T06:10:04;10.10;99.90
42031;DHT22;27709;52.036;5.906;2023-03-14T06:12:30;10.00;99.90
42031;DHT22;27709;52.036;5.906;2023-03-14T06:14:55;10.00;99.90
42031;DHT22;27709;52.036;5.906;2023-03-14T06:17:21;10.00;99.90
42031;DHT22;27709;52.036;5.906;2023-03-14T06:19:46;10.00;99.90
42031;DHT22;27709;52.036;5.906;2023-03-14T06:22:12;9.90;99.90
42031;DHT22;27709;52.036;5.906;2023-03-14T06:24:41;9.90;99.90
42031;DHT22;27709;52.036;5.906;2023-03-14T06:27:07;10.00;99.90
42031;DHT22;27709;52.036;5.906;2023-03-14T06:29:33;9.90;99.90
42031;DHT22;27709;52.036;5.906;2023-03-14T06:31:58;9.90;99.90
42031;DHT22;27709;52.036;5.906;2023-03-14T06:34:34;9.90;99.90
42031;DHT22;27709;52.036;5.906;2023-03-14T06:36:59;9.90;99.90
42031;DHT22;27709;52.036;5.906;2023-03-14T06:39:25;10.00;99.90
42031;DHT22;27709;52.036;5.906;2023-03-14T06:41:50;10.00;99.90
42031;DHT22;27709;52.036;5.906;2023-03-14T06:44:16;10.00;99.90
42031;DHT22;27709;52.036;5.906;2023-03-14T06:46:41;10.00;99.90
42031;DHT22;27709;52.036;5.906;2023-03-14T06:49:07;10.00;99.90
42031;DHT22;27709;52.036;5.906;2023-03-14T06:51:32;10.10;99.90
42031;DHT22;27709;52.036;5.906;2023-03-14T06:53:58;10.10;99.90
42031;DHT22;27709;52.036;5.906;2023-03-14T06:56:23;10.10;99.90
42031;DHT22;27709;52.036;5.906;2023-03-14T06:58:49;10.20;99.90
42031;DHT22;27709;52.036;5.906;2023-03-14T07:01:20;10.20;99.90
42031;DHT22;27709;52.036;5.906;2023-03-14T07:03:46;10.20;99.90
42031;DHT22;27709;52.036;5.906;2023-03-14T07:06:11;10.20;99.90
42031;DHT22;27709;52.036;5.906;2023-03-14T07:08:37;10.20;99.90
42031;DHT22;27709;52.036;5.906;2023-03-14T07:11:04;10.30;99.90
42031;DHT22;27709;52.036;5.906;2023-03-14T07:13:29;10.30;99.90
42031;DHT22;27709;52.036;5.906;2023-03-14T07:15:55;10.30;99.90
42031;DHT22;27709;52.036;5.906;2023-03-14T07:18:20;10.30;99.90
42031;DHT22;27709;52.036;5.906;2023-03-14T07:20:46;10.30;99.90
42031;DHT22;27709;52.036;5.906;2023-03-14T07:23:11;10.30;99.90
42031;DHT22;27709;52.036;5.906;2023-03-14T07:25:37;10.30;99.90
42031;DHT22;27709;52.036;5.906;2023-03-14T07:28:02;10.30;99.90
42031;DHT22;27709;52.036;5.906;2023-03-14T07:30:27;10.30;99.90
42031;DHT22;27709;52.036;5.906;2023-03-14T07:32:53;10.20;99.90
42031;DHT22;27709;52.036;5.906;2023-03-14T07:35:19;10.30;99.90
42031;DHT22;27709;52.036;5.906;2023-03-14T07:37:45;10.30;99.90
42031;DHT22;27709;52.036;5.906;2023-03-14T07:40:10;10.30;99.90
42031;DHT22;27709;52.036;5.906;2023-03-14T07:42:40;10.20;99.90
42031;DHT22;27709;52.036;5.906;2023-03-14T07:45:06;10.20;99.90
42031;DHT22;27709;52.036;5.906;2023-03-14T07:47:31;10.10;99.90
42031;DHT22;27709;52.036;5.906;2023-03-14T07:49:57;9.90;99.90
42031;DHT22;27709;52.036;5.906;2023-03-14T07:52:22;9.90;99.90
42031;DHT22;27709;52.036;5.906;2023-03-14T07:54:49;9.80;99.90
42031;DHT22;27709;52.036;5.906;2023-03-14T07:57:14;9.80;99.90
42031;DHT22;27709;52.036;5.906;2023-03-14T07:59:40;9.70;99.90
42031;DHT22;27709;52.036;5.906;2023-03-14T08:02:05;9.70;99.90
42031;DHT22;27709;52.036;5.906;2023-03-14T08:04:36;9.70;99.90
42031;DHT22;27709;52.036;5.906;2023-03-14T08:07:01;9.60;99.90
42031;DHT22;27709;52.036;5.906;2023-03-14T08:09:27;9.50;99.90
42031;DHT22;27709;52.036;5.906;2023-03-14T08:11:52;9.50;99.90
42031;DHT22;27709;52.036;5.906;2023-03-14T08:14:18;9.40;99.90
42031;DHT22;27709;52.036;5.906;2023-03-14T08:16:43;9.40;99.90
42031;DHT22;27709;52.036;5.906;2023-03-14T08:19:09;9.40;99.90
42031;DHT22;27709;52.036;5.906;2023-03-14T08:21:37;9.40;99.90
42031;DHT22;27709;52.036;5.906;2023-03-14T08:24:02;9.30;99.90
42031;DHT22;27709;52.036;5.906;2023-03-14T08:26:28;9.40;99.90
42031;DHT22;27709;52.036;5.906;2023-03-14T08:28:53;9.40;99.90
42031;DHT22;27709;52.036;5.906;2023-03-14T08:31:18;9.50;99.90
42031;DHT22;27709;52.036;5.906;2023-03-14T08:33:44;9.40;99.90
42031;DHT22;27709;52.036;5.906;2023-03-14T08:36:09;9.40;99.90
42031;DHT22;27709;52.036;5.906;2023-03-14T08:38:35;9.30;99.90
42031;DHT22;27709;52.036;5.906;2023-03-14T08:41:01;9.20;99.90
42031;DHT22;27709;52.036;5.906;2023-03-14T08:43:28;9.20;99.90
42031;DHT22;27709;52.036;5.906;2023-03-14T08:45:53;9.10;99.90
42031;DHT22;27709;52.036;5.906;2023-03-14T08:48:23;9.00;99.90
42031;DHT22;27709;52.036;5.906;2023-03-14T08:50:49;8.90;99.90
42031;DHT22;27709;52.036;5.906;2023-03-14T08:53:14;8.90;99.90
42031;DHT22;27709;52.036;5.906;2023-03-14T08:55:39;8.90;99.90
42031;DHT22;27709;52.036;5.906;2023-03-14T08:58:05;8.90;99.90
42031;DHT22;27709;52.036;5.906;2023-03-14T09:00:30;9.00;99.90
42031;DHT22;27709;52.036;5.906;2023-03-14T09:02:56;9.00;99.90
42031;DHT22;27709;52.036;5.906;2023-03-14T09:05:21;9.00;99.90
42031;DHT22;27709;52.036;5.906;2023-03-14T09:07:48;9.00;99.90
42031;DHT22;27709;52.036;5.906;2023-03-14T09:10:13;9.10;99.90
42031;DHT22;27709;52.036;5.906;2023-03-14T09:12:39;9.00;99.90
42031;DHT22;27709;52.036;5.906;2023-03-14T09:15:04;8.90;99.90
42031;DHT22;27709;52.036;5.906;2023-03-14T09:17:30;8.70;99.90
42031;DHT22;27709;52.036;5.906;2023-03-14T09:19:56;8.60;99.90
42031;DHT22;27709;52.036;5.906;2023-03-14T09:22:22;8.50;99.90
42031;DHT22;27709;52.036;5.906;2023-03-14T09:24:47;8.40;99.90
42031;DHT22;27709;52.036;5.906;2023-03-14T09:27:13;8.30;99.90
42031;DHT22;27709;52.036;5.906;2023-03-14T09:29:38;8.20;99.90
42031;DHT22;27709;52.036;5.906;2023-03-14T09:32:04;8.40;99.90
42031;DHT22;27709;52.036;5.906;2023-03-14T09:34:30;8.60;99.90
42031;DHT22;27709;52.036;5.906;2023-03-14T09:36:56;8.80;99.90
42031;DHT22;27709;52.036;5.906;2023-03-14T09:39:22;9.20;99.90
42031;DHT22;27709;52.036;5.906;2023-03-14T09:41:48;9.60;99.90
42031;DHT22;27709;52.036;5.906;2023-03-14T09:44:15;9.80;99.90
42031;DHT22;27709;52.036;5.906;2023-03-14T09:46:42;10.00;99.90
42031;DHT22;27709;52.036;5.906;2023-03-14T09:49:09;10.00;99.90
42031;DHT22;27709;52.036;5.906;2023-03-14T09:51:36;10.00;99.90
42031;DHT22;27709;52.036;5.906;2023-03-14T09:54:01;10.00;99.90
42031;DHT22;27709;52.036;5.906;2023-03-14T09:56:29;9.90;99.90
42031;DHT22;27709;52.036;5.906;2023-03-14T09:58:58;9.80;99.90
42031;DHT22;27709;52.036;5.906;2023-03-14T10:01:25;9.90;99.90
42031;DHT22;27709;52.036;5.906;2023-03-14T10:03:50;9.90;99.90
42031;DHT22;27709;52.036;5.906;2023-03-14T10:06:17;10.00;99.90
42031;DHT22;27709;52.036;5.906;2023-03-14T10:08:44;9.90;99.90
42031;DHT22;27709;52.036;5.906;2023-03-14T10:11:14;9.80;99.90
42031;DHT22;27709;52.036;5.906;2023-03-14T10:16:28;9.80;99.90
42031;DHT22;27709;52.036;5.906;2023-03-14T10:18:53;9.90;99.90
42031;DHT22;27709;52.036;5.906;2023-03-14T10:21:26;9.90;99.90
42031;DHT22;27709;52.036;5.906;2023-03-14T10:23:53;9.80;99.90
42031;DHT22;27709;52.036;5.906;2023-03-14T10:26:27;9.70;99.90
42031;DHT22;27709;52.036;5.906;2023-03-14T10:29:01;9.60;99.90
42031;DHT22;27709;52.036;5.906;2023-03-14T10:31:45;9.50;99.90
42031;DHT22;27709;52.036;5.906;2023-03-14T10:34:14;9.50;99.90
42031;DHT22;27709;52.036;5.906;2023-03-14T10:36:40;9.60;99.90
42031;DHT22;27709;52.036;5.906;2023-03-14T10:41:47;9.60;99.90
42031;DHT22;27709;52.036;5.906;2023-03-14T10:44:16;9.60;99.90
42031;DHT22;27709;52.036;5.906;2023-03-14T10:46:45;9.50;99.90
42031;DHT22;27709;52.036;5.906;2023-03-14T10:49:26;9.50;99.90
42031;DHT22;27709;52.036;5.906;2023-03-14T10:54:58;9.50;99.90
42031;DHT22;27709;52.036;5.906;2023-03-14T10:57:24;9.50;99.90
42031;DHT22;27709;52.036;5.906;2023-03-14T10:59:49;9.40;99.90
42031;DHT22;27709;52.036;5.906;2023-03-14T11:07:28;9.10;99.90
42031;DHT22;27709;52.036;5.906;2023-03-14T11:10:01;9.10;99.90
42031;DHT22;27709;52.036;5.906;2023-03-14T11:12:34;9.10;99.90
42031;DHT22;27709;52.036;5.906;2023-03-14T11:15:04;9.20;99.90
42031;DHT22;27709;52.036;5.906;2023-03-14T11:17:34;9.50;99.90
42031;DHT22;27709;52.036;5.906;2023-03-14T11:20:04;9.60;99.90
42031;DHT22;27709;52.036;5.906;2023-03-14T11:22:45;9.60;99.90
42031;DHT22;27709;52.036;5.906;2023-03-14T11:33:21;9.40;99.90
42031;DHT22;27709;52.036;5.906;2023-03-14T11:35:49;9.50;99.90
42031;DHT22;27709;52.036;5.906;2023-03-14T11:40:58;9.60;99.90
42031;DHT22;27709;52.036;5.906;2023-03-14T11:43:28;9.60;99.90
42031;DHT22;27709;52.036;5.906;2023-03-14T11:45:55;9.60;99.90
42031;DHT22;27709;52.036;5.906;2023-03-14T11:48:25;9.60;99.90
42031;DHT22;27709;52.036;5.906;2023-03-14T11:50:57;9.60;99.90
42031;DHT22;27709;52.036;5.906;2023-03-14T11:53:28;9.70;99.90
42031;DHT22;27709;52.036;5.906;2023-03-14T11:55:59;9.80;99.90
42031;DHT22;27709;52.036;5.906;2023-03-14T11:58:25;10.00;99.90
42031;DHT22;27709;52.036;5.906;2023-03-14T12:00:53;10.20;99.90
42031;DHT22;27709;52.036;5.906;2023-03-14T12:08:57;10.30;99.90
42031;DHT22;27709;52.036;5.906;2023-03-14T12:14:01;9.90;99.90
42031;DHT22;27709;52.036;5.906;2023-03-14T12:16:32;9.90;99.90
42031;DHT22;27709;52.036;5.906;2023-03-14T12:18:57;9.80;99.90
42031;DHT22;27709;52.036;5.906;2023-03-14T12:24:30;9.90;99.90
42031;DHT22;27709;52.036;5.906;2023-03-14T12:26:57;10.10;99.90
42031;DHT22;27709;52.036;5.906;2023-03-14T12:29:23;10.30;99.90
42031;DHT22;27709;52.036;5.906;2023-03-14T12:34:30;10.30;99.50
42031;DHT22;27709;52.036;5.906;2023-03-14T12:39:22;10.40;99.90
42031;DHT22;27709;52.036;5.906;2023-03-14T12:42:00;10.50;99.90
42031;DHT22;27709;52.036;5.906;2023-03-14T12:46:58;10.40;99.00
42031;DHT22;27709;52.036;5.906;2023-03-14T12:49:31;10.40;98.80
42031;DHT22;27709;52.036;5.906;2023-03-14T12:52:00;10.40;98.90
42031;DHT22;27709;52.036;5.906;2023-03-14T12:54:28;10.40;98.60
42031;DHT22;27709;52.036;5.906;2023-03-14T12:57:00;10.30;99.10
42031;DHT22;27709;52.036;5.906;2023-03-14T12:59:32;10.30;99.90
42031;DHT22;27709;52.036;5.906;2023-03-14T13:04:34;10.10;99.20
42031;DHT22;27709;52.036;5.906;2023-03-14T13:07:01;10.00;99.20
42031;DHT22;27709;52.036;5.906;2023-03-14T13:11:53;10.10;99.10
42031;DHT22;27709;52.036;5.906;2023-03-14T13:14:19;10.20;99.10
42031;DHT22;27709;52.036;5.906;2023-03-14T13:16:44;10.30;99.20
42031;DHT22;27709;52.036;5.906;2023-03-14T13:19:15;10.40;98.90
42031;DHT22;27709;52.036;5.906;2023-03-14T13:21:42;10.50;99.10
42031;DHT22;27709;52.036;5.906;2023-03-14T13:24:20;10.50;98.70
42031;DHT22;27709;52.036;5.906;2023-03-14T13:26:45;10.50;98.30
42031;DHT22;27709;52.036;5.906;2023-03-14T13:29:24;10.50;98.20
42031;DHT22;27709;52.036;5.906;2023-03-14T13:31:51;10.60;97.90
42031;DHT22;27709;52.036;5.906;2023-03-14T13:34:26;10.60;97.70
42031;DHT22;27709;52.036;5.906;2023-03-14T13:36:52;10.60;97.10
42031;DHT22;27709;52.036;5.906;2023-03-14T13:39:19;10.60;96.20
42031;DHT22;27709;52.036;5.906;2023-03-14T13:41:45;10.50;96.20
42031;DHT22;27709;52.036;5.906;2023-03-14T13:44:15;10.50;95.60
42031;DHT22;27709;52.036;5.906;2023-03-14T13:46:48;10.40;96.70
42031;DHT22;27709;52.036;5.906;2023-03-14T13:49:25;10.40;97.80
42031;DHT22;27709;52.036;5.906;2023-03-14T13:51:54;10.30;98.30
42031;DHT22;27709;52.036;5.906;2023-03-14T13:54:26;10.40;98.00
42031;DHT22;27709;52.036;5.906;2023-03-14T13:57:02;10.30;97.40
42031;DHT22;27709;52.036;5.906;2023-03-14T13:59:28;10.40;97.10
42031;DHT22;27709;52.036;5.906;2023-03-14T14:01:57;10.40;97.10
42031;DHT22;27709;52.036;5.906;2023-03-14T14:04:24;10.40;95.80
42031;DHT22;27709;52.036;5.906;2023-03-14T14:06:58;10.40;96.50
42031;DHT22;27709;52.036;5.906;2023-03-14T14:09:25;10.60;97.90
42031;DHT22;27709;52.036;5.906;2023-03-14T14:12:10;10.80;97.60
42031;DHT22;27709;52.036;5.906;2023-03-14T14:17:26;11.00;96.50
42031;DHT22;27709;52.036;5.906;2023-03-14T14:19:53;11.10;96.20
42031;DHT22;27709;52.036;5.906;2023-03-14T14:22:19;11.20;97.40
42031;DHT22;27709;52.036;5.906;2023-03-14T14:24:47;11.10;96.60
42031;DHT22;27709;52.036;5.906;2023-03-14T14:27:16;10.90;95.20
42031;DHT22;27709;52.036;5.906;2023-03-14T14:29:42;10.70;94.80
42031;DHT22;27709;52.036;5.906;2023-03-14T14:32:14;10.50;94.80
42031;DHT22;27709;52.036;5.906;2023-03-14T14:34:44;10.40;96.40
42031;DHT22;27709;52.036;5.906;2023-03-14T14:37:22;10.30;95.50
42031;DHT22;27709;52.036;5.906;2023-03-14T14:39:49;10.10;95.10
42031;DHT22;27709;52.036;5.906;2023-03-14T14:42:21;10.00;96.00
42031;DHT22;27709;52.036;5.906;2023-03-14T14:44:50;10.00;96.80
42031;DHT22;27709;52.036;5.906;2023-03-14T14:47:20;10.00;95.60
42031;DHT22;27709;52.036;5.906;2023-03-14T14:49:49;9.90;96.70
42031;DHT22;27709;52.036;5.906;2023-03-14T14:52:30;9.80;95.80
42031;DHT22;27709;52.036;5.906;2023-03-14T14:55:00;9.70;95.00
42031;DHT22;27709;52.036;5.906;2023-03-14T14:57:31;9.60;95.30
42031;DHT22;27709;52.036;5.906;2023-03-14T15:00:04;9.50;95.00
42031;DHT22;27709;52.036;5.906;2023-03-14T15:02:35;9.40;95.40
42031;DHT22;27709;52.036;5.906;2023-03-14T15:05:01;9.20;94.30
42031;DHT22;27709;52.036;5.906;2023-03-14T15:07:26;9.10;94.50
42031;DHT22;27709;52.036;5.906;2023-03-14T15:09:54;8.90;94.00
42031;DHT22;27709;52.036;5.906;2023-03-14T15:12:20;8.80;94.20
42031;DHT22;27709;52.036;5.906;2023-03-14T15:14:46;8.80;94.30
42031;DHT22;27709;52.036;5.906;2023-03-14T15:17:12;8.80;94.80
42031;DHT22;27709;52.036;5.906;2023-03-14T15:19:38;8.80;95.50
42031;DHT22;27709;52.036;5.906;2023-03-14T15:22:08;9.00;95.90
42031;DHT22;27709;52.036;5.906;2023-03-14T15:24:36;9.10;96.70
42031;DHT22;27709;52.036;5.906;2023-03-14T15:27:02;9.10;96.40
42031;DHT22;27709;52.036;5.906;2023-03-14T15:29:28;9.10;95.80
42031;DHT22;27709;52.036;5.906;2023-03-14T15:31:53;9.10;96.40
42031;DHT22;27709;52.036;5.906;2023-03-14T15:34:19;9.10;95.80
42031;DHT22;27709;52.036;5.906;2023-03-14T15:36:44;9.00;95.90
42031;DHT22;27709;52.036;5.906;2023-03-14T15:39:10;9.00;96.40
42031;DHT22;27709;52.036;5.906;2023-03-14T15:41:36;8.90;96.90
42031;DHT22;27709;52.036;5.906;2023-03-14T15:44:01;8.90;96.40
42031;DHT22;27709;52.036;5.906;2023-03-14T15:46:27;8.90;97.60
42031;DHT22;27709;52.036;5.906;2023-03-14T15:48:53;8.90;98.00
42031;DHT22;27709;52.036;5.906;2023-03-14T15:51:19;8.90;97.90
42031;DHT22;27709;52.036;5.906;2023-03-14T15:53:44;8.90;98.00
42031;DHT22;27709;52.036;5.906;2023-03-14T15:56:11;8.80;97.70
42031;DHT22;27709;52.036;5.906;2023-03-14T15:58:37;8.80;97.40
42031;DHT22;27709;52.036;5.906;2023-03-14T16:01:05;8.80;97.60
42031;DHT22;27709;52.036;5.906;2023-03-14T16:03:34;8.80;97.90
42031;DHT22;27709;52.036;5.906;2023-03-14T16:05:59;8.90;98.50
42031;DHT22;27709;52.036;5.906;2023-03-14T16:08:25;8.80;98.40
42031;DHT22;27709;52.036;5.906;2023-03-14T16:10:51;8.80;98.30
42031;DHT22;27709;52.036;5.906;2023-03-14T16:13:16;8.60;97.80
42031;DHT22;27709;52.036;5.906;2023-03-14T16:15:41;8.60;98.00
42031;DHT22;27709;52.036;5.906;2023-03-14T16:18:07;8.50;98.10
42031;DHT22;27709;52.036;5.906;2023-03-14T16:20:32;8.40;98.40
42031;DHT22;27709;52.036;5.906;2023-03-14T16:22:58;8.40;98.80
42031;DHT22;27709;52.036;5.906;2023-03-14T16:25:24;8.40;98.80
42031;DHT22;27709;52.036;5.906;2023-03-14T16:27:51;8.40;98.80
42031;DHT22;27709;52.036;5.906;2023-03-14T16:30:17;8.40;99.40
42031;DHT22;27709;52.036;5.906;2023-03-14T16:32:45;8.40;99.40
42031;DHT22;27709;52.036;5.906;2023-03-14T16:35:13;8.40;99.40